sensor_id;sensor_type;location;lat;lon;timestamp;pressure;altitude;pressure_sealevel;temperature;humidity
35129;BME280;21301;43.626;10.580;2024-03-23T00:54:28;101564.78;;;11.17;100.00
35129;BME280;21301;43.626;10.580;2024-03-23T00:56:54;101563.44;;;11.24;100.00
35129;BME280;21301;43.626;10.580;2024-03-23T00:59:19;101559.50;;;11.44;100.00
35129;BME280;21301;43.626;10.580;2024-03-23T01:01:47;101561.56;;;10.84;100.00
35129;BME280;21301;43.626;10.580;2024-03-23T01:04:15;101558.72;;;11.29;100.00
35129;BME280;21301;43.626;10.580;2024-03-23T01:06:42;101556.28;;;11.26;100.00
35129;BME280;21301;43.626;10.580;2024-03-23T01:09:07;101552.50;;;11.30;100.00
35129;BME280;21301;43.626;10.580;2024-03-23T01:11:37;101546.03;;;11.61;100.00
35129;BME280;21301;43.626;10.580;2024-03-23T01:14:03;101544.84;;;11.92;100.00
35129;BME280;21301;43.626;10.580;2024-03-23T01:16:28;101556.31;;;12.04;100.00
35129;BME280;21301;43.626;10.580;2024-03-23T01:18:55;101546.53;;;12.06;100.00
35129;BME280;21301;43.626;10.580;2024-03-23T01:21:21;101549.69;;;12.11;100.00
35129;BME280;21301;43.626;10.580;2024-03-23T01:23:46;101550.75;;;11.96;100.00
35129;BME280;21301;43.626;10.580;2024-03-23T01:26:12;101546.22;;;11.98;100.00
35129;BME280;21301;43.626;10.580;2024-03-23T01:28:38;101536.69;;;11.83;100.00
35129;BME280;21301;43.626;10.580;2024-03-23T01:31:03;101537.81;;;11.40;100.00
35129;BME280;21301;43.626;10.580;2024-03-23T01:33:29;101551.66;;;11.29;100.00
35129;BME280;21301;43.626;10.580;2024-03-23T01:35:54;101542.47;;;11.22;100.00
35129;BME280;21301;43.626;10.580;2024-03-23T01:38:20;101542.78;;;11.18;100.00
35129;BME280;21301;43.626;10.580;2024-03-23T01:40:48;101547.94;;;11.19;100.00
35129;BME280;21301;43.626;10.580;2024-03-23T01:43:14;101551.91;;;11.39;100.00
35129;BME280;21301;43.626;10.580;2024-03-23T01:45:40;101545.19;;;11.61;100.00
35129;BME280;21301;43.626;10.580;2024-03-23T01:48:07;101544.75;;;11.54;100.00
35129;BME280;21301;43.626;10.580;2024-03-23T01:50:32;101548.13;;;11.56;100.00
35129;BME280;21301;43.626;10.580;2024-03-23T01:53:02;101553.63;;;11.53;100.00
35129;BME280;21301;43.626;10.580;2024-03-23T01:55:28;101544.56;;;11.17;100.00
35129;BME280;21301;43.626;10.580;2024-03-23T01:57:56;101546.25;;;11.58;100.00
35129;BME280;21301;43.626;10.580;2024-03-23T02:00:22;101553.66;;;11.79;100.00
35129;BME280;21301;43.626;10.580;2024-03-23T02:02:48;101551.19;;;12.03;100.00
35129;BME280;21301;43.626;10.580;2024-03-23T02:05:14;101551.66;;;11.69;100.00
35129;BME280;21301;43.626;10.580;2024-03-23T02:07:40;101547.69;;;11.89;100.00
35129;BME280;21301;43.626;10.580;2024-03-23T02:10:07;101542.63;;;12.12;100.00
35129;BME280;21301;43.626;10.580;2024-03-23T02:12:33;101550.84;;;11.94;100.00
35129;BME280;21301;43.626;10.580;2024-03-23T02:14:59;101552.28;;;11.73;100.00
35129;BME280;21301;43.626;10.580;2024-03-23T02:17:25;101552.78;;;11.52;100.00
35129;BME280;21301;43.626;10.580;2024-03-23T02:19:50;101551.13;;;11.24;100.00
35129;BME280;21301;43.626;10.580;2024-03-23T02:22:16;101542.63;;;11.34;100.00
35129;BME280;21301;43.626;10.580;2024-03-23T02:24:42;101540.84;;;11.07;100.00
35129;BME280;21301;43.626;10.580;2024-03-23T02:27:08;101543.00;;;10.87;100.00
35129;BME280;21301;43.626;10.580;2024-03-23T02:29:35;101544.81;;;11.00;100.00
35129;BME280;21301;43.626;10.580;2024-03-23T02:32:00;101538.09;;;11.08;100.00
35129;BME280;21301;43.626;10.580;2024-03-23T02:34:26;101546.16;;;10.93;100.00
35129;BME280;21301;43.626;10.580;2024-03-23T02:36:53;101536.28;;;10.96;100.00
35129;BME280;21301;43.626;10.580;2024-03-23T02:39:18;101530.63;;;11.02;100.00
35129;BME280;21301;43.626;10.580;2024-03-23T02:41:44;101526.03;;;10.92;100.00
35129;BME280;21301;43.626;10.580;2024-03-23T02:44:10;101529.13;;;10.71;100.00
35129;BME280;21301;43.626;10.580;2024-03-23T02:46:38;101538.38;;;10.35;100.00
35129;BME280;21301;43.626;10.580;2024-03-23T02:49:03;101541.19;;;9.59;100.00
35129;BME280;21301;43.626;10.580;2024-03-23T02:51:30;101545.88;;;9.24;100.00
35129;BME280;21301;43.626;10.580;2024-03-23T02:53:55;101534.16;;;9.29;100.00
35129;BME280;21301;43.626;10.580;2024-03-23T02:56:21;101529.16;;;9.99;100.00
35129;BME280;21301;43.626;10.580;2024-03-23T02:58:47;101529.81;;;10.17;100.00
35129;BME280;21301;43.626;10.580;2024-03-23T03:01:12;101532.72;;;9.98;100.00
35129;BME280;21301;43.626;10.580;2024-03-23T03:03:38;101523.25;;;10.10;100.00
35129;BME280;21301;43.626;10.580;2024-03-23T03:06:04;101524.94;;;10.40;100.00
35129;BME280;21301;43.626;10.580;2024-03-23T03:08:29;101519.97;;;10.50;100.00
35129;BME280;21301;43.626;10.580;2024-03-23T03:10:55;101519.69;;;10.40;100.00
35129;BME280;21301;43.626;10.580;2024-03-23T03:13:21;101516.75;;;10.59;100.00
35129;BME280;21301;43.626;10.580;2024-03-23T03:15:46;101513.97;;;10.75;100.00
35129;BME280;21301;43.626;10.580;2024-03-23T03:18:12;101521.19;;;10.85;100.00
35129;BME280;21301;43.626;10.580;2024-03-23T03:20:41;101520.06;;;10.90;100.00
35129;BME280;21301;43.626;10.580;2024-03-23T03:23:07;101525.31;;;10.90;100.00
35129;BME280;21301;43.626;10.580;2024-03-23T03:25:33;101528.78;;;10.90;100.00
35129;BME280;21301;43.626;10.580;2024-03-23T03:27:59;101519.06;;;10.78;100.00
35129;BME280;21301;43.626;10.580;2024-03-23T03:30:24;101516.06;;;10.70;100.00
35129;BME280;21301;43.626;10.580;2024-03-23T03:32:53;101521.47;;;10.81;100.00
35129;BME280;21301;43.626;10.580;2024-03-23T03:35:19;101518.66;;;10.84;100.00
35129;BME280;21301;43.626;10.580;2024-03-23T03:37:44;101529.41;;;10.94;100.00
35129;BME280;21301;43.626;10.580;2024-03-23T03:40:10;101521.94;;;11.15;100.00
35129;BME280;21301;43.626;10.580;2024-03-23T03:42:36;101530.72;;;11.01;100.00
35129;BME280;21301;43.626;10.580;2024-03-23T03:45:03;101531.81;;;10.84;100.00
35129;BME280;21301;43.626;10.580;2024-03-23T03:47:30;101536.03;;;10.31;100.00
35129;BME280;21301;43.626;10.580;2024-03-23T03:49:56;101536.56;;;10.50;100.00
35129;BME280;21301;43.626;10.580;2024-03-23T03:52:21;101533.25;;;11.02;100.00
35129;BME280;21301;43.626;10.580;2024-03-23T03:54:47;101547.03;;;10.79;100.00
35129;BME280;21301;43.626;10.580;2024-03-23T03:57:14;101548.59;;;10.26;100.00
35129;BME280;21301;43.626;10.580;2024-03-23T03:59:39;101542.78;;;10.49;100.00
35129;BME280;21301;43.626;10.580;2024-03-23T04:02:04;101541.34;;;10.58;100.00
35129;BME280;21301;43.626;10.580;2024-03-23T04:04:32;101531.19;;;10.66;100.00
35129;BME280;21301;43.626;10.580;2024-03-23T04:07:01;101532.22;;;11.05;100.00
35129;BME280;21301;43.626;10.580;2024-03-23T04:09:28;101528.88;;;11.16;100.00
35129;BME280;21301;43.626;10.580;2024-03-23T04:11:54;101528.91;;;10.74;100.00
35129;BME280;21301;43.626;10.580;2024-03-23T04:14:20;101521.19;;;10.85;100.00
35129;BME280;21301;43.626;10.580;2024-03-23T04:16:45;101518.75;;;11.09;100.00
35129;BME280;21301;43.626;10.580;2024-03-23T04:19:11;101511.41;;;11.15;100.00
35129;BME280;21301;43.626;10.580;2024-03-23T04:21:37;101506.03;;;10.89;100.00
35129;BME280;21301;43.626;10.580;2024-03-23T04:24:03;101508.22;;;10.41;100.00
35129;BME280;21301;43.626;10.580;2024-03-23T04:26:30;101515.34;;;10.24;100.00
35129;BME280;21301;43.626;10.580;2024-03-23T04:29:05;101511.00;;;9.66;100.00
35129;BME280;21301;43.626;10.580;2024-03-23T04:31:32;101513.75;;;9.79;100.00
35129;BME280;21301;43.626;10.580;2024-03-23T04:34:04;101511.91;;;9.51;100.00
35129;BME280;21301;43.626;10.580;2024-03-23T04:36:30;101509.41;;;9.64;100.00
35129;BME280;21301;43.626;10.580;2024-03-23T04:38:57;101506.69;;;9.65;100.00
35129;BME280;21301;43.626;10.580;2024-03-23T04:41:25;101507.56;;;8.89;100.00
35129;BME280;21301;43.626;10.580;2024-03-23T04:43:51;101502.88;;;9.10;100.00
35129;BME280;21301;43.626;10.580;2024-03-23T04:46:20;101508.00;;;9.28;100.00
35129;BME280;21301;43.626;10.580;2024-03-23T04:48:47;101509.78;;;9.27;100.00
35129;BME280;21301;43.626;10.580;2024-03-23T04:51:25;101514.69;;;8.56;100.00
35129;BME280;21301;43.626;10.580;2024-03-23T04:53:53;101504.34;;;8.84;100.00
35129;BME280;21301;43.626;10.580;2024-03-23T04:56:20;101512.28;;;9.14;100.00
35129;BME280;21301;43.626;10.580;2024-03-23T04:58:47;101509.25;;;9.36;100.00
35129;BME280;21301;43.626;10.580;2024-03-23T05:01:13;101512.03;;;9.64;100.00
35129;BME280;21301;43.626;10.580;2024-03-23T05:03:38;101518.03;;;9.66;100.00
35129;BME280;21301;43.626;10.580;2024-03-23T05:06:04;101519.81;;;9.35;100.00
35129;BME280;21301;43.626;10.580;2024-03-23T05:08:30;101521.53;;;9.36;100.00
35129;BME280;21301;43.626;10.580;2024-03-23T05:10:59;101512.78;;;9.66;100.00
35129;BME280;21301;43.626;10.580;2024-03-23T05:13:24;101508.97;;;10.00;100.00
35129;BME280;21301;43.626;10.580;2024-03-23T05:15:54;101505.44;;;10.30;100.00
35129;BME280;21301;43.626;10.580;2024-03-23T05:18:20;101507.94;;;10.45;100.00
35129;BME280;21301;43.626;10.580;2024-03-23T05:20:46;101510.09;;;10.39;100.00
35129;BME280;21301;43.626;10.580;2024-03-23T05:23:11;101509.63;;;10.47;100.00
35129;BME280;21301;43.626;10.580;2024-03-23T05:25:37;101516.75;;;10.59;100.00
35129;BME280;21301;43.626;10.580;2024-03-23T05:28:03;101517.84;;;10.69;100.00
35129;BME280;21301;43.626;10.580;2024-03-23T05:30:28;101518.13;;;10.64;100.00
35129;BME280;21301;43.626;10.580;2024-03-23T05:32:54;101515.50;;;10.92;100.00
35129;BME280;21301;43.626;10.580;2024-03-23T05:35:19;101518.72;;;10.97;100.00
35129;BME280;21301;43.626;10.580;2024-03-23T05:37:45;101521.03;;;11.01;100.00
35129;BME280;21301;43.626;10.580;2024-03-23T05:40:12;101521.81;;;10.89;100.00
35129;BME280;21301;43.626;10.580;2024-03-23T05:42:40;101518.00;;;10.80;100.00
35129;BME280;21301;43.626;10.580;2024-03-23T05:45:07;101503.31;;;10.63;100.00
35129;BME280;21301;43.626;10.580;2024-03-23T05:47:34;101499.97;;;10.33;100.00
35129;BME280;21301;43.626;10.580;2024-03-23T05:50:01;101518.34;;;9.90;100.00
35129;BME280;21301;43.626;10.580;2024-03-23T05:52:27;101521.47;;;10.81;100.00
35129;BME280;21301;43.626;10.580;2024-03-23T05:54:53;101513.94;;;11.94;100.00
35129;BME280;21301;43.626;10.580;2024-03-23T05:57:18;101519.81;;;12.73;100.00
35129;BME280;21301;43.626;10.580;2024-03-23T05:59:46;101513.22;;;13.62;100.00
35129;BME280;21301;43.626;10.580;2024-03-23T06:02:11;101507.81;;;13.53;100.00
35129;BME280;21301;43.626;10.580;2024-03-23T06:04:38;101506.19;;;13.04;100.00
35129;BME280;21301;43.626;10.580;2024-03-23T06:07:04;101511.59;;;13.84;100.00
35129;BME280;21301;43.626;10.580;2024-03-23T06:09:33;101502.78;;;14.74;100.00
35129;BME280;21301;43.626;10.580;2024-03-23T06:11:58;101506.28;;;15.06;100.00
35129;BME280;21301;43.626;10.580;2024-03-23T06:14:24;101507.78;;;15.41;100.00
35129;BME280;21301;43.626;10.580;2024-03-23T06:16:49;101506.31;;;15.69;100.00
35129;BME280;21301;43.626;10.580;2024-03-23T06:19:18;101509.84;;;16.01;100.00
35129;BME280;21301;43.626;10.580;2024-03-23T06:21:45;101513.84;;;16.26;100.00
35129;BME280;21301;43.626;10.580;2024-03-23T06:24:11;101519.38;;;16.44;100.00
35129;BME280;21301;43.626;10.580;2024-03-23T06:26:38;101514.75;;;16.86;100.00
35129;BME280;21301;43.626;10.580;2024-03-23T06:29:04;101512.63;;;16.80;100.00
35129;BME280;21301;43.626;10.580;2024-03-23T06:31:30;101511.94;;;16.37;100.00
35129;BME280;21301;43.626;10.580;2024-03-23T06:33:56;101512.47;;;15.70;100.00
35129;BME280;21301;43.626;10.580;2024-03-23T06:36:21;101515.41;;;15.13;100.00
35129;BME280;21301;43.626;10.580;2024-03-23T06:38:48;101510.88;;;14.61;100.00
35129;BME280;21301;43.626;10.580;2024-03-23T06:41:15;101526.88;;;14.25;100.00
35129;BME280;21301;43.626;10.580;2024-03-23T06:43:41;101518.59;;;14.07;100.00
35129;BME280;21301;43.626;10.580;2024-03-23T06:46:06;101522.13;;;13.61;100.00
35129;BME280;21301;43.626;10.580;2024-03-23T06:48:32;101522.78;;;13.17;100.00
35129;BME280;21301;43.626;10.580;2024-03-23T06:50:58;101524.25;;;13.21;100.00
35129;BME280;21301;43.626;10.580;2024-03-23T06:53:26;101514.81;;;13.06;100.00
35129;BME280;21301;43.626;10.580;2024-03-23T06:55:53;101518.03;;;12.98;100.00
35129;BME280;21301;43.626;10.580;2024-03-23T06:58:20;101517.34;;;12.83;100.00
35129;BME280;21301;43.626;10.580;2024-03-23T07:00:46;101513.69;;;12.73;100.00
35129;BME280;21301;43.626;10.580;2024-03-23T07:03:12;101512.28;;;12.43;100.00
35129;BME280;21301;43.626;10.580;2024-03-23T07:05:37;101503.94;;;12.49;100.00
35129;BME280;21301;43.626;10.580;2024-03-23T07:08:03;101514.91;;;12.56;100.00
35129;BME280;21301;43.626;10.580;2024-03-23T07:10:29;101513.69;;;12.73;100.00
35129;BME280;21301;43.626;10.580;2024-03-23T07:12:54;101503.59;;;12.91;100.00
35129;BME280;21301;43.626;10.580;2024-03-23T07:15:20;101499.88;;;12.93;100.00
35129;BME280;21301;43.626;10.580;2024-03-23T07:17:50;101500.00;;;12.92;100.00
35129;BME280;21301;43.626;10.580;2024-03-23T07:20:16;101506.63;;;12.97;100.00
35129;BME280;21301;43.626;10.580;2024-03-23T07:22:41;101497.44;;;13.14;100.00
35129;BME280;21301;43.626;10.580;2024-03-23T07:25:07;101497.13;;;13.19;100.00
35129;BME280;21301;43.626;10.580;2024-03-23T07:27:33;101492.41;;;13.47;100.00
35129;BME280;21301;43.626;10.580;2024-03-23T07:29:59;101497.19;;;13.88;100.00
35129;BME280;21301;43.626;10.580;2024-03-23T07:32:27;101486.00;;;14.18;100.00
35129;BME280;21301;43.626;10.580;2024-03-23T07:34:52;101483.81;;;14.35;100.00
35129;BME280;21301;43.626;10.580;2024-03-23T07:37:18;101482.16;;;14.34;100.00
35129;BME280;21301;43.626;10.580;2024-03-23T07:39:45;101482.22;;;14.55;100.00
35129;BME280;21301;43.626;10.580;2024-03-23T07:42:10;101472.94;;;15.04;100.00
35129;BME280;21301;43.626;10.580;2024-03-23T07:44:39;101472.31;;;15.32;100.00
35129;BME280;21301;43.626;10.580;2024-03-23T07:47:07;101469.44;;;15.87;100.00
35129;BME280;21301;43.626;10.580;2024-03-23T07:49:33;101465.59;;;16.61;100.00
35129;BME280;21301;43.626;10.580;2024-03-23T07:51:58;101463.97;;;16.89;100.00
35129;BME280;21301;43.626;10.580;2024-03-23T07:54:24;101455.16;;;17.18;100.00
35129;BME280;21301;43.626;10.580;2024-03-23T07:56:49;101456.53;;;17.41;100.00
35129;BME280;21301;43.626;10.580;2024-03-23T07:59:15;101454.97;;;17.49;100.00
35129;BME280;21301;43.626;10.580;2024-03-23T08:01:41;101455.06;;;17.57;100.00
35129;BME280;21301;43.626;10.580;2024-03-23T08:04:06;101451.91;;;17.24;100.00
35129;BME280;21301;43.626;10.580;2024-03-23T08:06:33;101459.59;;;17.46;100.00
35129;BME280;21301;43.626;10.580;2024-03-23T08:08:59;101458.72;;;17.65;100.00
35129;BME280;21301;43.626;10.580;2024-03-23T08:11:30;101452.06;;;17.79;100.00
35129;BME280;21301;43.626;10.580;2024-03-23T08:13:56;101451.69;;;18.12;100.00
35129;BME280;21301;43.626;10.580;2024-03-23T08:16:22;101447.25;;;18.48;100.00
35129;BME280;21301;43.626;10.580;2024-03-23T08:18:51;101457.47;;;18.70;100.00
35129;BME280;21301;43.626;10.580;2024-03-23T08:21:18;101448.19;;;18.92;100.00
35129;BME280;21301;43.626;10.580;2024-03-23T08:23:45;101454.38;;;18.93;100.00
35129;BME280;21301;43.626;10.580;2024-03-23T08:26:15;101455.13;;;19.03;100.00
35129;BME280;21301;43.626;10.580;2024-03-23T08:28:42;101458.16;;;18.72;100.00
35129;BME280;21301;43.626;10.580;2024-03-23T08:31:09;101455.81;;;18.87;100.00
35129;BME280;21301;43.626;10.580;2024-03-23T08:33:36;101448.97;;;19.73;100.00
35129;BME280;21301;43.626;10.580;2024-03-23T08:36:05;101441.28;;;20.71;100.00
35129;BME280;21301;43.626;10.580;2024-03-23T08:38:31;101435.13;;;20.79;100.00
35129;BME280;21301;43.626;10.580;2024-03-23T08:41:00;101440.63;;;21.02;100.00
35129;BME280;21301;43.626;10.580;2024-03-23T08:43:26;101439.63;;;20.78;100.00
35129;BME280;21301;43.626;10.580;2024-03-23T08:45:53;101431.94;;;20.92;100.00
35129;BME280;21301;43.626;10.580;2024-03-23T08:48:19;101420.34;;;21.57;100.00
35129;BME280;21301;43.626;10.580;2024-03-23T08:53:28;101419.31;;;22.05;100.00
35129;BME280;21301;43.626;10.580;2024-03-23T08:55:59;101407.63;;;21.59;100.00
35129;BME280;21301;43.626;10.580;2024-03-23T08:58:27;101395.19;;;22.05;100.00
35129;BME280;21301;43.626;10.580;2024-03-23T09:00:55;101402.16;;;21.27;100.00
35129;BME280;21301;43.626;10.580;2024-03-23T09:03:25;101396.81;;;21.44;100.00
35129;BME280;21301;43.626;10.580;2024-03-23T09:05:54;101394.13;;;20.37;100.00
35129;BME280;21301;43.626;10.580;2024-03-23T09:08:21;101401.81;;;19.55;100.00
35129;BME280;21301;43.626;10.580;2024-03-23T09:10:47;101398.63;;;19.26;100.00
35129;BME280;21301;43.626;10.580;2024-03-23T09:13:14;101392.44;;;19.77;100.00
35129;BME280;21301;43.626;10.580;2024-03-23T09:15:52;101395.88;;;20.04;100.00
35129;BME280;21301;43.626;10.580;2024-03-23T09:18:22;101385.56;;;20.17;100.00
35129;BME280;21301;43.626;10.580;2024-03-23T09:20:53;101379.34;;;20.00;100.00
35129;BME280;21301;43.626;10.580;2024-03-23T09:23:23;101377.16;;;19.96;100.00
35129;BME280;21301;43.626;10.580;2024-03-23T09:25:49;101391.28;;;19.80;100.00
35129;BME280;21301;43.626;10.580;2024-03-23T09:28:15;101385.63;;;19.91;100.00
35129;BME280;21301;43.626;10.580;2024-03-23T09:30:41;101388.63;;;19.80;100.00
35129;BME280;21301;43.626;10.580;2024-03-23T09:33:12;101376.75;;;19.74;100.00
35129;BME280;21301;43.626;10.580;2024-03-23T09:35:43;101373.00;;;19.67;100.00
35129;BME280;21301;43.626;10.580;2024-03-23T09:38:09;101362.56;;;19.74;100.00
35129;BME280;21301;43.626;10.580;2024-03-23T09:40:45;101359.91;;;19.48;100.00
35129;BME280;21301;43.626;10.580;2024-03-23T09:43:14;101357.09;;;19.75;100.00
35129;BME280;21301;43.626;10.580;2024-03-23T09:45:40;101353.94;;;19.80;100.00
35129;BME280;21301;43.626;10.580;2024-03-23T09:48:08;101356.34;;;19.65;100.00
35129;BME280;21301;43.626;10.580;2024-03-23T09:50:44;101359.16;;;19.64;100.00
35129;BME280;21301;43.626;10.580;2024-03-23T09:53:21;101362.91;;;19.71;100.00
35129;BME280;21301;43.626;10.580;2024-03-23T09:55:47;101369.28;;;19.86;100.00
35129;BME280;21301;43.626;10.580;2024-03-23T09:58:26;101360.69;;;20.25;100.00
35129;BME280;21301;43.626;10.580;2024-03-23T10:00:52;101362.72;;;20.23;100.00
35129;BME280;21301;43.626;10.580;2024-03-23T10:03:17;101354.81;;;19.97;100.00
35129;BME280;21301;43.626;10.580;2024-03-23T10:06:00;101346.13;;;19.26;100.00
35129;BME280;21301;43.626;10.580;2024-03-23T10:08:29;101346.31;;;18.99;100.00
35129;BME280;21301;43.626;10.580;2024-03-23T10:10:56;101340.16;;;18.98;100.00
35129;BME280;21301;43.626;10.580;2024-03-23T10:13:27;101341.97;;;19.24;100.00
35129;BME280;21301;43.626;10.580;2024-03-23T10:15:57;101346.28;;;19.51;100.00
35129;BME280;21301;43.626;10.580;2024-03-23T10:18:23;101337.88;;;19.72;100.00
35129;BME280;21301;43.626;10.580;2024-03-23T10:21:11;101342.41;;;19.11;100.00
35129;BME280;21301;43.626;10.580;2024-03-23T10:23:41;101343.16;;;18.59;100.00
35129;BME280;21301;43.626;10.580;2024-03-23T10:26:27;101346.28;;;18.37;100.00
35129;BME280;21301;43.626;10.580;2024-03-23T10:29:00;101347.75;;;17.85;100.00
35129;BME280;21301;43.626;10.580;2024-03-23T10:31:28;101331.84;;;17.38;100.00
35129;BME280;21301;43.626;10.580;2024-03-23T10:33:55;101342.66;;;17.37;100.00
35129;BME280;21301;43.626;10.580;2024-03-23T10:36:24;101332.09;;;17.45;100.00
35129;BME280;21301;43.626;10.580;2024-03-23T10:38:54;101341.56;;;17.57;100.00
35129;BME280;21301;43.626;10.580;2024-03-23T10:41:23;101331.03;;;17.65;100.00
35129;BME280;21301;43.626;10.580;2024-03-23T10:43:51;101326.63;;;17.09;100.00
35129;BME280;21301;43.626;10.580;2024-03-23T10:46:17;101336.47;;;16.89;100.00
35129;BME280;21301;43.626;10.580;2024-03-23T10:48:43;101341.94;;;16.58;100.00
35129;BME280;21301;43.626;10.580;2024-03-23T10:51:12;101337.03;;;16.34;100.00
35129;BME280;21301;43.626;10.580;2024-03-23T10:53:39;101329.47;;;16.10;100.00
35129;BME280;21301;43.626;10.580;2024-03-23T10:56:06;101335.31;;;15.94;100.00
35129;BME280;21301;43.626;10.580;2024-03-23T10:58:41;101331.28;;;15.90;100.00
35129;BME280;21301;43.626;10.580;2024-03-23T11:01:12;101329.44;;;15.81;100.00
35129;BME280;21301;43.626;10.580;2024-03-23T11:03:40;101328.78;;;15.68;100.00
35129;BME280;21301;43.626;10.580;2024-03-23T11:06:10;101316.84;;;15.73;100.00
35129;BME280;21301;43.626;10.580;2024-03-23T11:08:40;101325.94;;;15.50;100.00
35129;BME280;21301;43.626;10.580;2024-03-23T11:11:21;101327.81;;;15.59;100.00
35129;BME280;21301;43.626;10.580;2024-03-23T11:13:50;101326.38;;;15.86;100.00
35129;BME280;21301;43.626;10.580;2024-03-23T11:16:25;101329.31;;;15.83;100.00
35129;BME280;21301;43.626;10.580;2024-03-23T11:19:34;101325.06;;;15.80;100.00
35129;BME280;21301;43.626;10.580;2024-03-23T11:22:01;101311.75;;;16.11;100.00
35129;BME280;21301;43.626;10.580;2024-03-23T11:24:29;101297.63;;;16.39;100.00
35129;BME280;21301;43.626;10.580;2024-03-23T11:26:55;101292.41;;;16.96;100.00
35129;BME280;21301;43.626;10.580;2024-03-23T11:29:22;101269.63;;;17.77;100.00
35129;BME280;21301;43.626;10.580;2024-03-23T11:31:52;101266.72;;;17.98;100.00
35129;BME280;21301;43.626;10.580;2024-03-23T11:34:22;101267.88;;;18.31;100.00
35129;BME280;21301;43.626;10.580;2024-03-23T11:36:48;101265.53;;;18.54;100.00
35129;BME280;21301;43.626;10.580;2024-03-23T11:39:17;101262.47;;;18.67;100.00
35129;BME280;21301;43.626;10.580;2024-03-23T11:41:53;101269.47;;;18.24;100.00
35129;BME280;21301;43.626;10.580;2024-03-23T11:44:23;101267.03;;;18.13;100.00
35129;BME280;21301;43.626;10.580;2024-03-23T11:46:51;101267.94;;;18.21;100.00
35129;BME280;21301;43.626;10.580;2024-03-23T11:49:22;101268.31;;;17.91;100.00
35129;BME280;21301;43.626;10.580;2024-03-23T11:51:48;101273.41;;;17.56;100.00
35129;BME280;21301;43.626;10.580;2024-03-23T11:54:16;101279.97;;;17.62;100.00
35129;BME280;21301;43.626;10.580;2024-03-23T11:56:59;101276.97;;;17.47;100.00
35129;BME280;21301;43.626;10.580;2024-03-23T11:59:52;101276.47;;;17.34;100.00
35129;BME280;21301;43.626;10.580;2024-03-23T12:02:19;101266.28;;;17.57;100.00
35129;BME280;21301;43.626;10.580;2024-03-23T12:04:46;101263.72;;;17.37;100.00
35129;BME280;21301;43.626;10.580;2024-03-23T12:07:19;101264.31;;;17.31;100.00
35129;BME280;21301;43.626;10.580;2024-03-23T12:09:47;101255.75;;;17.37;100.00
35129;BME280;21301;43.626;10.580;2024-03-23T12:12:28;101258.75;;;17.24;100.00
35129;BME280;21301;43.626;10.580;2024-03-23T12:15:04;101254.00;;;17.18;100.00
35129;BME280;21301;43.626;10.580;2024-03-23T12:17:30;101254.81;;;17.29;100.00
35129;BME280;21301;43.626;10.580;2024-03-23T12:19:56;101253.03;;;17.19;100.00
35129;BME280;21301;43.626;10.580;2024-03-23T12:22:22;101250.09;;;16.66;100.00
35129;BME280;21301;43.626;10.580;2024-03-23T12:24:48;101246.72;;;16.73;100.00
35129;BME280;21301;43.626;10.580;2024-03-23T12:27:14;101246.22;;;16.60;100.00
35129;BME280;21301;43.626;10.580;2024-03-23T12:29:42;101242.56;;;16.61;100.00
35129;BME280;21301;43.626;10.580;2024-03-23T12:32:08;101230.13;;;16.61;100.00
35129;BME280;21301;43.626;10.580;2024-03-23T12:34:34;101217.06;;;16.40;100.00
35129;BME280;21301;43.626;10.580;2024-03-23T12:37:00;101207.41;;;16.30;100.00
35129;BME280;21301;43.626;10.580;2024-03-23T12:39:26;101203.53;;;16.71;100.00
35129;BME280;21301;43.626;10.580;2024-03-23T12:41:53;101194.06;;;17.06;100.00
35129;BME280;21301;43.626;10.580;2024-03-23T12:44:19;101191.41;;;17.34;100.00
35129;BME280;21301;43.626;10.580;2024-03-23T12:46:45;101192.25;;;17.34;100.00
35129;BME280;21301;43.626;10.580;2024-03-23T12:49:11;101176.00;;;17.55;100.00
35129;BME280;21301;43.626;10.580;2024-03-23T12:51:37;101179.06;;;17.78;100.00
35129;BME280;21301;43.626;10.580;2024-03-23T12:54:03;101177.63;;;17.66;100.00
35129;BME280;21301;43.626;10.580;2024-03-23T12:56:30;101166.03;;;17.85;100.00
35129;BME280;21301;43.626;10.580;2024-03-23T12:58:56;101171.69;;;17.72;100.00
35129;BME280;21301;43.626;10.580;2024-03-23T13:01:26;101159.91;;;17.75;100.00
35129;BME280;21301;43.626;10.580;2024-03-23T13:03:52;101151.63;;;17.96;100.00
35129;BME280;21301;43.626;10.580;2024-03-23T13:06:18;101146.31;;;17.96;100.00
35129;BME280;21301;43.626;10.580;2024-03-23T13:08:45;101129.63;;;18.12;100.00
35129;BME280;21301;43.626;10.580;2024-03-23T13:11:11;101138.19;;;17.97;100.00
35129;BME280;21301;43.626;10.580;2024-03-23T13:13:37;101144.75;;;18.11;100.00
35129;BME280;21301;43.626;10.580;2024-03-23T13:16:04;101144.56;;;17.86;100.00
35129;BME280;21301;43.626;10.580;2024-03-23T13:18:31;101139.47;;;17.93;100.00
35129;BME280;21301;43.626;10.580;2024-03-23T13:20:59;101135.63;;;17.24;100.00
35129;BME280;21301;43.626;10.580;2024-03-23T13:23:25;101137.59;;;17.22;100.00
35129;BME280;21301;43.626;10.580;2024-03-23T13:25:55;101138.47;;;16.95;100.00
35129;BME280;21301;43.626;10.580;2024-03-23T13:28:23;101131.78;;;17.18;100.00